sensor_id;sensor_type;location;lat;lon;timestamp;P1;durP1;ratioP1;P2;durP2;ratioP2
47349;SDS011;33088;51.982;5.872;2022-12-08T00:02:02;18.05;;;11.20;;
47349;SDS011;33088;51.982;5.872;2022-12-08T00:04:27;17.67;;;9.88;;
47349;SDS011;33088;51.982;5.872;2022-12-08T00:06:53;22.20;;;10.57;;
47349;SDS011;33088;51.982;5.872;2022-12-08T00:09:39;17.23;;;11.00;;
47349;SDS011;33088;51.982;5.872;2022-12-08T00:12:06;13.23;;;10.07;;
47349;SDS011;33088;51.982;5.872;2022-12-08T00:14:40;15.02;;;9.48;;
47349;SDS011;33088;51.982;5.872;2022-12-08T00:17:08;23.17;;;8.88;;
47349;SDS011;33088;51.982;5.872;2022-12-08T00:19:36;16.10;;;10.00;;
47349;SDS011;33088;51.982;5.872;2022-12-08T00:22:04;18.30;;;10.32;;
47349;SDS011;33088;51.982;5.872;2022-12-08T00:24:32;18.80;;;11.55;;
47349;SDS011;33088;51.982;5.872;2022-12-08T00:27:00;17.02;;;10.23;;
47349;SDS011;33088;51.982;5.872;2022-12-08T00:29:26;15.95;;;10.75;;
47349;SDS011;33088;51.982;5.872;2022-12-08T00:31:52;14.40;;;9.93;;
47349;SDS011;33088;51.982;5.872;2022-12-08T00:34:18;12.23;;;9.35;;
47349;SDS011;33088;51.982;5.872;2022-12-08T00:36:44;13.88;;;10.40;;
47349;SDS011;33088;51.982;5.872;2022-12-08T00:39:10;13.40;;;9.82;;
47349;SDS011;33088;51.982;5.872;2022-12-08T00:41:37;20.05;;;11.30;;
47349;SDS011;33088;51.982;5.872;2022-12-08T00:44:21;14.32;;;9.68;;
47349;SDS011;33088;51.982;5.872;2022-12-08T00:46:47;14.18;;;8.65;;
47349;SDS011;33088;51.982;5.872;2022-12-08T00:49:13;16.23;;;10.25;;
47349;SDS011;33088;51.982;5.872;2022-12-08T00:51:40;11.40;;;7.88;;
47349;SDS011;33088;51.982;5.872;2022-12-08T00:54:06;10.35;;;7.38;;
47349;SDS011;33088;51.982;5.872;2022-12-08T00:56:32;13.82;;;8.63;;
47349;SDS011;33088;51.982;5.872;2022-12-08T00:58:58;12.25;;;7.85;;
47349;SDS011;33088;51.982;5.872;2022-12-08T01:01:25;9.75;;;7.15;;
47349;SDS011;33088;51.982;5.872;2022-12-08T01:03:51;12.93;;;7.68;;
47349;SDS011;33088;51.982;5.872;2022-12-08T01:06:16;11.43;;;7.38;;
47349;SDS011;33088;51.982;5.872;2022-12-08T01:08:43;8.48;;;6.63;;
47349;SDS011;33088;51.982;5.872;2022-12-08T01:11:11;8.77;;;6.95;;
47349;SDS011;33088;51.982;5.872;2022-12-08T01:13:38;12.23;;;7.22;;
47349;SDS011;33088;51.982;5.872;2022-12-08T01:16:04;10.98;;;7.07;;
47349;SDS011;33088;51.982;5.872;2022-12-08T01:18:30;13.02;;;6.45;;
47349;SDS011;33088;51.982;5.872;2022-12-08T01:21:02;13.45;;;7.00;;
47349;SDS011;33088;51.982;5.872;2022-12-08T01:23:29;15.52;;;7.72;;
47349;SDS011;33088;51.982;5.872;2022-12-08T01:25:55;10.43;;;6.40;;
47349;SDS011;33088;51.982;5.872;2022-12-08T01:28:25;13.00;;;7.25;;
47349;SDS011;33088;51.982;5.872;2022-12-08T01:30:50;14.43;;;8.18;;
47349;SDS011;33088;51.982;5.872;2022-12-08T01:33:16;11.65;;;7.85;;
47349;SDS011;33088;51.982;5.872;2022-12-08T01:35:42;10.43;;;7.68;;
47349;SDS011;33088;51.982;5.872;2022-12-08T01:38:07;14.60;;;8.55;;
47349;SDS011;33088;51.982;5.872;2022-12-08T01:40:33;13.45;;;9.60;;
47349;SDS011;33088;51.982;5.872;2022-12-08T01:42:58;17.95;;;10.35;;
47349;SDS011;33088;51.982;5.872;2022-12-08T01:45:25;18.77;;;11.55;;
47349;SDS011;33088;51.982;5.872;2022-12-08T01:47:56;19.13;;;12.23;;
47349;SDS011;33088;51.982;5.872;2022-12-08T01:50:27;18.17;;;11.85;;
47349;SDS011;33088;51.982;5.872;2022-12-08T01:53:01;20.17;;;12.18;;
47349;SDS011;33088;51.982;5.872;2022-12-08T01:55:58;22.20;;;12.23;;
47349;SDS011;33088;51.982;5.872;2022-12-08T01:58:37;17.98;;;12.43;;
47349;SDS011;33088;51.982;5.872;2022-12-08T02:01:07;20.58;;;13.23;;
47349;SDS011;33088;51.982;5.872;2022-12-08T02:03:35;18.65;;;13.27;;
47349;SDS011;33088;51.982;5.872;2022-12-08T02:06:01;20.85;;;12.32;;
47349;SDS011;33088;51.982;5.872;2022-12-08T02:08:27;24.92;;;13.73;;
47349;SDS011;33088;51.982;5.872;2022-12-08T02:10:54;18.50;;;13.10;;
47349;SDS011;33088;51.982;5.872;2022-12-08T02:13:20;22.05;;;14.00;;
47349;SDS011;33088;51.982;5.872;2022-12-08T02:18:57;20.52;;;13.80;;
47349;SDS011;33088;51.982;5.872;2022-12-08T02:35:12;22.73;;;14.05;;
47349;SDS011;33088;51.982;5.872;2022-12-08T02:41:06;19.00;;;13.98;;
47349;SDS011;33088;51.982;5.872;2022-12-08T02:43:42;19.73;;;13.90;;
47349;SDS011;33088;51.982;5.872;2022-12-08T02:46:34;20.15;;;14.43;;
47349;SDS011;33088;51.982;5.872;2022-12-08T02:49:03;23.60;;;16.10;;
47349;SDS011;33088;51.982;5.872;2022-12-08T02:51:30;22.50;;;15.45;;
47349;SDS011;33088;51.982;5.872;2022-12-08T02:53:56;24.17;;;13.88;;
47349;SDS011;33088;51.982;5.872;2022-12-08T02:56:30;25.42;;;14.30;;
47349;SDS011;33088;51.982;5.872;2022-12-08T03:07:11;26.05;;;13.88;;
47349;SDS011;33088;51.982;5.872;2022-12-08T03:10:02;22.13;;;14.45;;
47349;SDS011;33088;51.982;5.872;2022-12-08T03:15:13;20.20;;;13.07;;
47349;SDS011;33088;51.982;5.872;2022-12-08T03:17:43;18.05;;;13.07;;
47349;SDS011;33088;51.982;5.872;2022-12-08T03:20:12;21.35;;;14.25;;
47349;SDS011;33088;51.982;5.872;2022-12-08T03:22:42;16.88;;;13.10;;
47349;SDS011;33088;51.982;5.872;2022-12-08T03:25:11;19.67;;;13.48;;
47349;SDS011;33088;51.982;5.872;2022-12-08T03:27:38;17.85;;;12.88;;
47349;SDS011;33088;51.982;5.872;2022-12-08T03:30:04;18.23;;;12.55;;
47349;SDS011;33088;51.982;5.872;2022-12-08T03:32:36;20.23;;;11.95;;
47349;SDS011;33088;51.982;5.872;2022-12-08T03:35:11;18.60;;;13.02;;
47349;SDS011;33088;51.982;5.872;2022-12-08T03:37:42;18.50;;;12.18;;
47349;SDS011;33088;51.982;5.872;2022-12-08T03:40:09;19.10;;;12.25;;
47349;SDS011;33088;51.982;5.872;2022-12-08T03:42:37;19.80;;;12.00;;
47349;SDS011;33088;51.982;5.872;2022-12-08T03:45:03;12.88;;;10.55;;
47349;SDS011;33088;51.982;5.872;2022-12-08T03:47:29;16.67;;;10.52;;
47349;SDS011;33088;51.982;5.872;2022-12-08T03:49:55;14.55;;;9.60;;
47349;SDS011;33088;51.982;5.872;2022-12-08T03:52:21;16.67;;;10.75;;
47349;SDS011;33088;51.982;5.872;2022-12-08T03:54:46;16.63;;;9.98;;
47349;SDS011;33088;51.982;5.872;2022-12-08T03:57:12;13.77;;;7.68;;
47349;SDS011;33088;51.982;5.872;2022-12-08T03:59:38;11.52;;;8.02;;
47349;SDS011;33088;51.982;5.872;2022-12-08T04:02:03;14.07;;;8.00;;
47349;SDS011;33088;51.982;5.872;2022-12-08T04:04:29;12.45;;;7.78;;
47349;SDS011;33088;51.982;5.872;2022-12-08T04:06:55;8.13;;;5.78;;
47349;SDS011;33088;51.982;5.872;2022-12-08T04:09:21;6.60;;;5.80;;
47349;SDS011;33088;51.982;5.872;2022-12-08T04:11:46;7.80;;;5.53;;
47349;SDS011;33088;51.982;5.872;2022-12-08T04:14:12;6.65;;;5.05;;
47349;SDS011;33088;51.982;5.872;2022-12-08T04:16:38;7.50;;;5.07;;
47349;SDS011;33088;51.982;5.872;2022-12-08T04:19:03;6.22;;;4.93;;
47349;SDS011;33088;51.982;5.872;2022-12-08T04:21:29;6.40;;;4.38;;
47349;SDS011;33088;51.982;5.872;2022-12-08T04:23:55;7.65;;;4.22;;
47349;SDS011;33088;51.982;5.872;2022-12-08T04:26:20;7.05;;;4.25;;
47349;SDS011;33088;51.982;5.872;2022-12-08T04:28:46;5.78;;;4.55;;
47349;SDS011;33088;51.982;5.872;2022-12-08T04:31:12;5.82;;;4.18;;
47349;SDS011;33088;51.982;5.872;2022-12-08T04:33:37;5.60;;;3.72;;
47349;SDS011;33088;51.982;5.872;2022-12-08T04:36:04;6.05;;;3.85;;
47349;SDS011;33088;51.982;5.872;2022-12-08T04:38:31;4.78;;;3.58;;
47349;SDS011;33088;51.982;5.872;2022-12-08T04:40:57;6.72;;;3.05;;
47349;SDS011;33088;51.982;5.872;2022-12-08T04:43:23;3.65;;;2.90;;
47349;SDS011;33088;51.982;5.872;2022-12-08T04:45:49;7.35;;;3.13;;
47349;SDS011;33088;51.982;5.872;2022-12-08T04:48:15;4.93;;;3.65;;
47349;SDS011;33088;51.982;5.872;2022-12-08T04:50:41;7.45;;;4.57;;
47349;SDS011;33088;51.982;5.872;2022-12-08T04:53:08;4.72;;;4.20;;
47349;SDS011;33088;51.982;5.872;2022-12-08T04:55:42;7.95;;;6.43;;
47349;SDS011;33088;51.982;5.872;2022-12-08T04:58:12;7.75;;;6.68;;
47349;SDS011;33088;51.982;5.872;2022-12-08T05:00:39;11.13;;;7.28;;
47349;SDS011;33088;51.982;5.872;2022-12-08T05:03:05;10.32;;;7.07;;
47349;SDS011;33088;51.982;5.872;2022-12-08T05:05:31;12.25;;;8.90;;
47349;SDS011;33088;51.982;5.872;2022-12-08T05:07:57;10.05;;;7.65;;
47349;SDS011;33088;51.982;5.872;2022-12-08T05:10:23;9.32;;;7.95;;
47349;SDS011;33088;51.982;5.872;2022-12-08T05:12:48;15.27;;;8.45;;
47349;SDS011;33088;51.982;5.872;2022-12-08T05:15:14;12.32;;;8.52;;
47349;SDS011;33088;51.982;5.872;2022-12-08T05:17:40;20.35;;;9.23;;
47349;SDS011;33088;51.982;5.872;2022-12-08T05:20:05;12.13;;;8.25;;
47349;SDS011;33088;51.982;5.872;2022-12-08T05:22:31;11.60;;;8.75;;
47349;SDS011;33088;51.982;5.872;2022-12-08T05:24:57;10.27;;;8.40;;
47349;SDS011;33088;51.982;5.872;2022-12-08T05:27:23;12.15;;;8.27;;
47349;SDS011;33088;51.982;5.872;2022-12-08T05:29:48;11.65;;;8.82;;
47349;SDS011;33088;51.982;5.872;2022-12-08T05:32:14;10.73;;;7.88;;
47349;SDS011;33088;51.982;5.872;2022-12-08T05:34:40;10.55;;;8.27;;
47349;SDS011;33088;51.982;5.872;2022-12-08T05:37:06;10.82;;;7.90;;
47349;SDS011;33088;51.982;5.872;2022-12-08T05:39:32;12.68;;;7.28;;
47349;SDS011;33088;51.982;5.872;2022-12-08T05:41:57;10.88;;;6.68;;
47349;SDS011;33088;51.982;5.872;2022-12-08T05:44:24;8.10;;;6.43;;
47349;SDS011;33088;51.982;5.872;2022-12-08T05:46:50;5.93;;;4.55;;
47349;SDS011;33088;51.982;5.872;2022-12-08T05:49:16;7.20;;;4.68;;
47349;SDS011;33088;51.982;5.872;2022-12-08T05:51:41;6.75;;;4.95;;
47349;SDS011;33088;51.982;5.872;2022-12-08T05:54:07;7.18;;;4.18;;
47349;SDS011;33088;51.982;5.872;2022-12-08T05:56:33;7.60;;;5.20;;
47349;SDS011;33088;51.982;5.872;2022-12-08T05:58:59;5.53;;;3.20;;
47349;SDS011;33088;51.982;5.872;2022-12-08T06:01:29;4.28;;;2.42;;
47349;SDS011;33088;51.982;5.872;2022-12-08T06:03:56;7.63;;;3.72;;
47349;SDS011;33088;51.982;5.872;2022-12-08T06:06:23;3.58;;;1.85;;
47349;SDS011;33088;51.982;5.872;2022-12-08T06:08:49;2.35;;;1.77;;
47349;SDS011;33088;51.982;5.872;2022-12-08T06:11:19;4.15;;;1.90;;
47349;SDS011;33088;51.982;5.872;2022-12-08T06:13:55;4.28;;;1.67;;
47349;SDS011;33088;51.982;5.872;2022-12-08T06:16:21;2.53;;;1.70;;
47349;SDS011;33088;51.982;5.872;2022-12-08T06:18:48;1.73;;;1.50;;
47349;SDS011;33088;51.982;5.872;2022-12-08T06:21:14;2.10;;;1.23;;
47349;SDS011;33088;51.982;5.872;2022-12-08T06:23:40;2.80;;;1.60;;
47349;SDS011;33088;51.982;5.872;2022-12-08T06:26:11;2.40;;;1.70;;
47349;SDS011;33088;51.982;5.872;2022-12-08T06:28:38;2.00;;;1.48;;
47349;SDS011;33088;51.982;5.872;2022-12-08T06:31:05;2.25;;;1.40;;
47349;SDS011;33088;51.982;5.872;2022-12-08T06:33:32;1.25;;;0.90;;
47349;SDS011;33088;51.982;5.872;2022-12-08T06:35:58;2.38;;;1.23;;
47349;SDS011;33088;51.982;5.872;2022-12-08T06:38:23;1.73;;;1.10;;
47349;SDS011;33088;51.982;5.872;2022-12-08T06:40:53;1.10;;;1.00;;
47349;SDS011;33088;51.982;5.872;2022-12-08T06:43:19;3.53;;;1.30;;
47349;SDS011;33088;51.982;5.872;2022-12-08T06:45:45;2.55;;;1.67;;
47349;SDS011;33088;51.982;5.872;2022-12-08T06:48:11;3.40;;;1.50;;
47349;SDS011;33088;51.982;5.872;2022-12-08T06:50:37;1.90;;;1.40;;
47349;SDS011;33088;51.982;5.872;2022-12-08T06:53:02;1.30;;;1.20;;
47349;SDS011;33088;51.982;5.872;2022-12-08T06:55:28;1.75;;;1.33;;
47349;SDS011;33088;51.982;5.872;2022-12-08T06:57:54;2.42;;;1.70;;
47349;SDS011;33088;51.982;5.872;2022-12-08T07:00:19;3.55;;;1.23;;
47349;SDS011;33088;51.982;5.872;2022-12-08T07:02:45;2.17;;;1.40;;
47349;SDS011;33088;51.982;5.872;2022-12-08T07:05:11;5.40;;;1.60;;
47349;SDS011;33088;51.982;5.872;2022-12-08T07:07:36;2.45;;;1.48;;
47349;SDS011;33088;51.982;5.872;2022-12-08T07:10:02;2.40;;;1.65;;
47349;SDS011;33088;51.982;5.872;2022-12-08T07:12:28;2.83;;;1.95;;
47349;SDS011;33088;51.982;5.872;2022-12-08T07:14:53;4.05;;;2.10;;
47349;SDS011;33088;51.982;5.872;2022-12-08T07:17:19;3.33;;;2.15;;
47349;SDS011;33088;51.982;5.872;2022-12-08T07:19:44;3.13;;;2.30;;
47349;SDS011;33088;51.982;5.872;2022-12-08T07:22:10;5.78;;;2.83;;
47349;SDS011;33088;51.982;5.872;2022-12-08T07:24:36;4.72;;;3.13;;
47349;SDS011;33088;51.982;5.872;2022-12-08T07:27:01;8.13;;;3.63;;
47349;SDS011;33088;51.982;5.872;2022-12-08T07:29:27;6.15;;;3.13;;
47349;SDS011;33088;51.982;5.872;2022-12-08T07:31:52;7.07;;;2.80;;
47349;SDS011;33088;51.982;5.872;2022-12-08T07:34:18;5.05;;;2.63;;
47349;SDS011;33088;51.982;5.872;2022-12-08T07:36:44;4.80;;;2.58;;
47349;SDS011;33088;51.982;5.872;2022-12-08T07:39:09;4.55;;;2.30;;
47349;SDS011;33088;51.982;5.872;2022-12-08T07:41:35;5.72;;;2.78;;
47349;SDS011;33088;51.982;5.872;2022-12-08T07:44:01;7.82;;;3.15;;
47349;SDS011;33088;51.982;5.872;2022-12-08T07:46:26;5.07;;;3.00;;
47349;SDS011;33088;51.982;5.872;2022-12-08T07:48:52;5.50;;;3.17;;
47349;SDS011;33088;51.982;5.872;2022-12-08T07:51:18;3.58;;;2.67;;
47349;SDS011;33088;51.982;5.872;2022-12-08T07:53:46;5.68;;;2.70;;
47349;SDS011;33088;51.982;5.872;2022-12-08T07:56:13;3.13;;;2.35;;
47349;SDS011;33088;51.982;5.872;2022-12-08T07:58:39;4.25;;;2.08;;
47349;SDS011;33088;51.982;5.872;2022-12-08T08:01:05;3.70;;;2.35;;
47349;SDS011;33088;51.982;5.872;2022-12-08T08:03:41;4.75;;;2.45;;
47349;SDS011;33088;51.982;5.872;2022-12-08T08:06:07;4.28;;;2.45;;
47349;SDS011;33088;51.982;5.872;2022-12-08T08:08:33;2.95;;;2.63;;
47349;SDS011;33088;51.982;5.872;2022-12-08T08:10:58;3.88;;;2.85;;
47349;SDS011;33088;51.982;5.872;2022-12-08T08:13:24;3.17;;;2.25;;
47349;SDS011;33088;51.982;5.872;2022-12-08T08:15:49;4.70;;;2.40;;
47349;SDS011;33088;51.982;5.872;2022-12-08T08:18:15;3.50;;;3.05;;
47349;SDS011;33088;51.982;5.872;2022-12-08T08:20:41;3.67;;;2.90;;
47349;SDS011;33088;51.982;5.872;2022-12-08T08:23:06;5.38;;;2.75;;
47349;SDS011;33088;51.982;5.872;2022-12-08T08:25:32;11.45;;;3.15;;
47349;SDS011;33088;51.982;5.872;2022-12-08T08:27:57;4.35;;;2.35;;
47349;SDS011;33088;51.982;5.872;2022-12-08T08:30:23;3.35;;;2.15;;
47349;SDS011;33088;51.982;5.872;2022-12-08T08:32:49;6.78;;;2.50;;
47349;SDS011;33088;51.982;5.872;2022-12-08T08:35:15;3.05;;;2.17;;
47349;SDS011;33088;51.982;5.872;2022-12-08T08:37:41;6.68;;;2.60;;
47349;SDS011;33088;51.982;5.872;2022-12-08T08:40:06;2.38;;;2.05;;
47349;SDS011;33088;51.982;5.872;2022-12-08T08:42:32;3.65;;;2.42;;
47349;SDS011;33088;51.982;5.872;2022-12-08T08:44:58;2.78;;;2.40;;
47349;SDS011;33088;51.982;5.872;2022-12-08T08:47:24;2.65;;;2.45;;
47349;SDS011;33088;51.982;5.872;2022-12-08T08:49:49;2.70;;;1.85;;
47349;SDS011;33088;51.982;5.872;2022-12-08T08:52:15;2.55;;;2.35;;
47349;SDS011;33088;51.982;5.872;2022-12-08T08:54:41;1.75;;;1.65;;
47349;SDS011;33088;51.982;5.872;2022-12-08T08:57:07;2.55;;;2.05;;
47349;SDS011;33088;51.982;5.872;2022-12-08T08:59:33;2.05;;;1.83;;
47349;SDS011;33088;51.982;5.872;2022-12-08T09:01:58;2.00;;;1.42;;
47349;SDS011;33088;51.982;5.872;2022-12-08T09:04:24;2.38;;;1.80;;
47349;SDS011;33088;51.982;5.872;2022-12-08T09:06:50;2.42;;;2.22;;
47349;SDS011;33088;51.982;5.872;2022-12-08T09:09:15;3.47;;;1.80;;
47349;SDS011;33088;51.982;5.872;2022-12-08T09:11:41;1.95;;;1.63;;
47349;SDS011;33088;51.982;5.872;2022-12-08T09:14:09;2.72;;;1.92;;
47349;SDS011;33088;51.982;5.872;2022-12-08T09:16:36;2.22;;;1.63;;
47349;SDS011;33088;51.982;5.872;2022-12-08T09:19:02;3.00;;;2.53;;
47349;SDS011;33088;51.982;5.872;2022-12-08T09:21:27;4.93;;;3.22;;
47349;SDS011;33088;51.982;5.872;2022-12-08T09:23:54;8.63;;;3.38;;
47349;SDS011;33088;51.982;5.872;2022-12-08T09:26:21;3.85;;;3.15;;
47349;SDS011;33088;51.982;5.872;2022-12-08T09:28:48;5.03;;;3.95;;
47349;SDS011;33088;51.982;5.872;2022-12-08T09:31:16;7.78;;;3.40;;
47349;SDS011;33088;51.982;5.872;2022-12-08T09:33:42;4.50;;;3.13;;
47349;SDS011;33088;51.982;5.872;2022-12-08T09:36:08;4.72;;;2.70;;
47349;SDS011;33088;51.982;5.872;2022-12-08T09:38:38;5.50;;;3.38;;
47349;SDS011;33088;51.982;5.872;2022-12-08T09:41:11;4.57;;;3.33;;
47349;SDS011;33088;51.982;5.872;2022-12-08T09:43:52;5.35;;;2.90;;
47349;SDS011;33088;51.982;5.872;2022-12-08T09:46:25;6.43;;;3.30;;
47349;SDS011;33088;51.982;5.872;2022-12-08T09:48:56;8.40;;;4.13;;
47349;SDS011;33088;51.982;5.872;2022-12-08T09:51:24;4.90;;;3.55;;
47349;SDS011;33088;51.982;5.872;2022-12-08T09:53:55;5.57;;;3.50;;
47349;SDS011;33088;51.982;5.872;2022-12-08T09:56:26;6.55;;;3.80;;
47349;SDS011;33088;51.982;5.872;2022-12-08T10:01:55;7.50;;;3.10;;
47349;SDS011;33088;51.982;5.872;2022-12-08T10:04:31;6.78;;;2.92;;
47349;SDS011;33088;51.982;5.872;2022-12-08T10:07:11;6.65;;;2.53;;
47349;SDS011;33088;51.982;5.872;2022-12-08T10:18:02;3.47;;;2.75;;
47349;SDS011;33088;51.982;5.872;2022-12-08T10:20:38;2.70;;;2.45;;
47349;SDS011;33088;51.982;5.872;2022-12-08T10:25:34;3.17;;;2.42;;
47349;SDS011;33088;51.982;5.872;2022-12-08T10:28:03;3.22;;;2.90;;
47349;SDS011;33088;51.982;5.872;2022-12-08T10:30:29;4.63;;;3.20;;
47349;SDS011;33088;51.982;5.872;2022-12-08T10:32:56;4.93;;;3.88;;
47349;SDS011;33088;51.982;5.872;2022-12-08T10:35:22;6.10;;;3.33;;
47349;SDS011;33088;51.982;5.872;2022-12-08T10:37:59;8.88;;;4.20;;
47349;SDS011;33088;51.982;5.872;2022-12-08T10:40:27;10.82;;;3.58;;
47349;SDS011;33088;51.982;5.872;2022-12-08T10:42:57;3.08;;;2.78;;
47349;SDS011;33088;51.982;5.872;2022-12-08T10:45:28;2.40;;;2.20;;
47349;SDS011;33088;51.982;5.872;2022-12-08T10:50:31;2.40;;;1.60;;
47349;SDS011;33088;51.982;5.872;2022-12-08T10:56:06;1.75;;;1.65;;
47349;SDS011;33088;51.982;5.872;2022-12-08T10:58:34;1.80;;;1.70;;
47349;SDS011;33088;51.982;5.872;2022-12-08T11:01:07;2.15;;;1.27;;
47349;SDS011;33088;51.982;5.872;2022-12-08T11:03:43;2.58;;;1.55;;
47349;SDS011;33088;51.982;5.872;2022-12-08T11:06:33;1.73;;;1.63;;
47349;SDS011;33088;51.982;5.872;2022-12-08T11:09:03;1.45;;;1.35;;
47349;SDS011;33088;51.982;5.872;2022-12-08T11:11:58;2.20;;;1.70;;
47349;SDS011;33088;51.982;5.872;2022-12-08T11:14:26;2.92;;;2.40;;
47349;SDS011;33088;51.982;5.872;2022-12-08T11:16:54;3.67;;;2.33;;
47349;SDS011;33088;51.982;5.872;2022-12-08T11:19:27;2.42;;;2.00;;
47349;SDS011;33088;51.982;5.872;2022-12-08T11:21:53;5.40;;;2.45;;
47349;SDS011;33088;51.982;5.872;2022-12-08T11:29:17;4.50;;;2.72;;
47349;SDS011;33088;51.982;5.872;2022-12-08T11:31:49;3.60;;;2.47;;
47349;SDS011;33088;51.982;5.872;2022-12-08T11:34:42;4.18;;;2.90;;
47349;SDS011;33088;51.982;5.872;2022-12-08T11:37:17;3.42;;;2.50;;
47349;SDS011;33088;51.982;5.872;2022-12-08T11:40:06;4.15;;;3.15;;
47349;SDS011;33088;51.982;5.872;2022-12-08T11:42:42;6.43;;;3.15;;
47349;SDS011;33088;51.982;5.872;2022-12-08T11:45:24;3.35;;;2.38;;
47349;SDS011;33088;51.982;5.872;2022-12-08T11:47:57;4.22;;;3.47;;
47349;SDS011;33088;51.982;5.872;2022-12-08T11:50:50;10.70;;;3.33;;
47349;SDS011;33088;51.982;5.872;2022-12-08T11:56:37;2.95;;;2.65;;
47349;SDS011;33088;51.982;5.872;2022-12-08T11:59:18;6.90;;;3.10;;
47349;SDS011;33088;51.982;5.872;2022-12-08T12:01:59;6.55;;;3.00;;
47349;SDS011;33088;51.982;5.872;2022-12-08T12:04:36;7.55;;;3.33;;
47349;SDS011;33088;51.982;5.872;2022-12-08T12:07:15;5.63;;;2.92;;
47349;SDS011;33088;51.982;5.872;2022-12-08T12:13:07;3.90;;;2.78;;
47349;SDS011;33088;51.982;5.872;2022-12-08T12:16:28;3.47;;;2.65;;
47349;SDS011;33088;51.982;5.872;2022-12-08T12:19:22;3.25;;;2.85;;
47349;SDS011;33088;51.982;5.872;2022-12-08T12:21:54;3.05;;;2.30;;
47349;SDS011;33088;51.982;5.872;2022-12-08T12:26:52;6.43;;;2.35;;
47349;SDS011;33088;51.982;5.872;2022-12-08T12:29:21;2.90;;;2.00;;
47349;SDS011;33088;51.982;5.872;2022-12-08T12:31:54;2.67;;;1.52;;
47349;SDS011;33088;51.982;5.872;2022-12-08T12:34:24;2.83;;;1.65;;
47349;SDS011;33088;51.982;5.872;2022-12-08T12:39:28;1.92;;;1.67;;
47349;SDS011;33088;51.982;5.872;2022-12-08T12:42:00;1.48;;;1.38;;
47349;SDS011;33088;51.982;5.872;2022-12-08T12:46:56;1.73;;;1.35;;
47349;SDS011;33088;51.982;5.872;2022-12-08T12:52:06;2.03;;;1.20;;
47349;SDS011;33088;51.982;5.872;2022-12-08T12:57:21;2.80;;;1.00;;
47349;SDS011;33088;51.982;5.872;2022-12-08T13:04:55;1.33;;;0.60;;
47349;SDS011;33088;51.982;5.872;2022-12-08T13:07:26;2.05;;;1.17;;
47349;SDS011;33088;51.982;5.872;2022-12-08T13:10:02;4.45;;;1.25;;
47349;SDS011;33088;51.982;5.872;2022-12-08T13:12:42;1.83;;;0.80;;
47349;SDS011;33088;51.982;5.872;2022-12-08T13:15:14;1.55;;;0.77;;
47349;SDS011;33088;51.982;5.872;2022-12-08T13:17:46;2.17;;;0.73;;
47349;SDS011;33088;51.982;5.872;2022-12-08T13:20:22;0.68;;;0.45;;
47349;SDS011;33088;51.982;5.872;2022-12-08T13:28:15;1.85;;;0.55;;
47349;SDS011;33088;51.982;5.872;2022-12-08T13:33:15;2.75;;;0.60;;
47349;SDS011;33088;51.982;5.872;2022-12-08T13:35:49;3.25;;;1.13;;
47349;SDS011;33088;51.982;5.872;2022-12-08T13:38:21;2.50;;;0.50;;
47349;SDS011;33088;51.982;5.872;2022-12-08T13:40:52;3.83;;;0.70;;
47349;SDS011;33088;51.982;5.872;2022-12-08T13:43:25;0.80;;;0.60;;
47349;SDS011;33088;51.982;5.872;2022-12-08T13:46:11;0.50;;;0.50;;
47349;SDS011;33088;51.982;5.872;2022-12-08T13:48:41;1.55;;;0.63;;
47349;SDS011;33088;51.982;5.872;2022-12-08T13:51:21;1.48;;;0.52;;
47349;SDS011;33088;51.982;5.872;2022-12-08T13:53:57;0.82;;;0.60;;
47349;SDS011;33088;51.982;5.872;2022-12-08T13:56:29;1.65;;;0.88;;
47349;SDS011;33088;51.982;5.872;2022-12-08T14:01:52;0.70;;;0.70;;
47349;SDS011;33088;51.982;5.872;2022-12-08T14:04:20;0.50;;;0.45;;
47349;SDS011;33088;51.982;5.872;2022-12-08T14:06:48;3.13;;;0.82;;
47349;SDS011;33088;51.982;5.872;2022-12-08T14:09:21;0.82;;;0.80;;
47349;SDS011;33088;51.982;5.872;2022-12-08T14:14:23;1.75;;;1.20;;
47349;SDS011;33088;51.982;5.872;2022-12-08T14:16:54;2.58;;;1.20;;
47349;SDS011;33088;51.982;5.872;2022-12-08T14:19:23;1.73;;;1.38;;
47349;SDS011;33088;51.982;5.872;2022-12-08T14:24:39;3.67;;;1.63;;
47349;SDS011;33088;51.982;5.872;2022-12-08T14:27:10;5.43;;;1.40;;
47349;SDS011;33088;51.982;5.872;2022-12-08T14:29:43;1.25;;;0.98;;
47349;SDS011;33088;51.982;5.872;2022-12-08T14:32:19;3.53;;;1.05;;
47349;SDS011;33088;51.982;5.872;2022-12-08T14:37:37;3.78;;;1.30;;
47349;SDS011;33088;51.982;5.872;2022-12-08T14:40:05;2.88;;;1.30;;
47349;SDS011;33088;51.982;5.872;2022-12-08T14:42:40;1.73;;;1.38;;
47349;SDS011;33088;51.982;5.872;2022-12-08T14:45:11;6.20;;;1.58;;
47349;SDS011;33088;51.982;5.872;2022-12-08T14:47:38;2.10;;;1.50;;
47349;SDS011;33088;51.982;5.872;2022-12-08T14:50:35;6.18;;;1.83;;
47349;SDS011;33088;51.982;5.872;2022-12-08T14:53:03;2.90;;;1.80;;
47349;SDS011;33088;51.982;5.872;2022-12-08T14:55:35;2.08;;;1.80;;
47349;SDS011;33088;51.982;5.872;2022-12-08T14:58:01;1.90;;;1.80;;
47349;SDS011;33088;51.982;5.872;2022-12-08T15:00:27;2.45;;;2.05;;
47349;SDS011;33088;51.982;5.872;2022-12-08T15:02:54;2.78;;;2.00;;
47349;SDS011;33088;51.982;5.872;2022-12-08T15:05:20;4.00;;;2.95;;
47349;SDS011;33088;51.982;5.872;2022-12-08T15:07:53;4.47;;;2.10;;
47349;SDS011;33088;51.982;5.872;2022-12-08T15:10:25;3.42;;;2.95;;
47349;SDS011;33088;51.982;5.872;2022-12-08T15:15:25;4.73;;;2.90;;
47349;SDS011;33088;51.982;5.872;2022-12-08T15:23:05;7.40;;;3.88;;
47349;SDS011;33088;51.982;5.872;2022-12-08T15:25:40;4.55;;;4.00;;
47349;SDS011;33088;51.982;5.872;2022-12-08T15:28:05;4.15;;;3.75;;
47349;SDS011;33088;51.982;5.872;2022-12-08T15:30:31;4.70;;;3.33;;
47349;SDS011;33088;51.982;5.872;2022-12-08T15:32:57;5.85;;;3.67;;
47349;SDS011;33088;51.982;5.872;2022-12-08T15:35:23;4.00;;;3.60;;
47349;SDS011;33088;51.982;5.872;2022-12-08T15:37:48;4.80;;;3.67;;
47349;SDS011;33088;51.982;5.872;2022-12-08T15:40:15;5.05;;;4.20;;
47349;SDS011;33088;51.982;5.872;2022-12-08T15:42:43;5.05;;;3.95;;
47349;SDS011;33088;51.982;5.872;2022-12-08T15:45:12;5.30;;;4.18;;
47349;SDS011;33088;51.982;5.872;2022-12-08T15:47:38;6.30;;;4.20;;
47349;SDS011;33088;51.982;5.872;2022-12-08T15:50:05;4.97;;;4.15;;
47349;SDS011;33088;51.982;5.872;2022-12-08T15:52:31;7.35;;;4.82;;
47349;SDS011;33088;51.982;5.872;2022-12-08T15:54:57;5.55;;;4.35;;
47349;SDS011;33088;51.982;5.872;2022-12-08T15:57:24;5.97;;;4.47;;
47349;SDS011;33088;51.982;5.872;2022-12-08T15:59:52;6.88;;;4.97;;
47349;SDS011;33088;51.982;5.872;2022-12-08T16:02:18;5.18;;;4.03;;
47349;SDS011;33088;51.982;5.872;2022-12-08T16:04:43;6.55;;;4.60;;
47349;SDS011;33088;51.982;5.872;2022-12-08T16:07:14;6.45;;;5.40;;
47349;SDS011;33088;51.982;5.872;2022-12-08T16:09:46;6.95;;;5.47;;
47349;SDS011;33088;51.982;5.872;2022-12-08T16:12:14;7.22;;;5.38;;
47349;SDS011;33088;51.982;5.872;2022-12-08T16:15:00;7.68;;;5.50;;
47349;SDS011;33088;51.982;5.872;2022-12-08T16:17:26;6.32;;;5.68;;
47349;SDS011;33088;51.982;5.872;2022-12-08T16:19:51;8.27;;;5.43;;
47349;SDS011;33088;51.982;5.872;2022-12-08T16:22:19;8.13;;;6.85;;
47349;SDS011;33088;51.982;5.872;2022-12-08T16:24:46;7.57;;;6.35;;
47349;SDS011;33088;51.982;5.872;2022-12-08T16:27:19;7.13;;;5.63;;
47349;SDS011;33088;51.982;5.872;2022-12-08T16:29:52;8.90;;;5.95;;
47349;SDS011;33088;51.982;5.872;2022-12-08T16:32:19;9.73;;;5.90;;
47349;SDS011;33088;51.982;5.872;2022-12-08T16:34:45;7.55;;;6.25;;
47349;SDS011;33088;51.982;5.872;2022-12-08T16:37:20;9.65;;;7.70;;
47349;SDS011;33088;51.982;5.872;2022-12-08T16:39:48;8.07;;;6.85;;
47349;SDS011;33088;51.982;5.872;2022-12-08T16:42:16;9.68;;;8.10;;